Time;durP1;ratioP1;P1;durP2;ratioP2;P2;SDS_P1;SDS_P2;PMS_P1;PMS_P2;Temp;Humidity;BMP_temperature;BMP_pressure;BME280_temperature;BME280_humidity;BME280_pressure;Samples;Min_cycle;Max_cycle;Signal;HPM_P1;HPM_P2
2022/06/10 04:17:29;;;;;;;9.90;7.47;;;;;;;20.59;62.74;100589.44;5065234;28;20944;-92
2022/06/10 04:19:57;;;;;;;11.98;7.50;;;;;;;20.65;62.63;100601.16;5042871;28;20044;-85
2022/06/10 04:22:22;;;;;;;9.98;7.28;;;;;;;20.91;61.94;100583.81;5063273;28;20029;-89
2022/06/10 04:24:48;;;;;;;11.05;7.35;;;;;;;21.35;60.64;100615.69;5066181;28;20096;-87
2022/06/10 04:27:13;;;;;;;14.25;7.63;;;;;;;21.43;60.58;100607.88;5065760;28;20395;-89
2022/06/10 04:29:39;;;;;;;11.05;7.60;;;;;;;21.70;59.11;100612.34;5066608;28;20415;-86
2022/06/10 04:32:05;;;;;;;12.18;7.88;;;;;;;21.59;59.56;100613.38;5034523;28;20044;-92
2022/06/10 04:34:30;;;;;;;10.95;7.53;;;;;;;21.76;58.51;100611.75;5049413;28;20044;-86
2022/06/10 04:36:56;;;;;;;11.05;7.63;;;;;;;22.06;58.26;100623.75;5067412;28;20489;-88
2022/06/10 04:39:21;;;;;;;10.13;7.85;;;;;;;22.25;57.59;100620.19;5049140;28;20029;-91
2022/06/10 04:41:47;;;;;;;12.68;7.78;;;;;;;22.28;56.64;100620.72;5050322;28;20063;-93
2022/06/10 04:44:12;;;;;;;10.88;7.85;;;;;;;22.43;56.98;100613.13;5067565;28;20029;-87
2022/06/10 04:46:40;;;;;;;11.75;8.07;;;;;;;22.38;56.87;100612.72;5048606;28;20039;-93
2022/06/10 04:49:05;;;;;;;13.43;8.18;;;;;;;22.36;56.98;100619.97;5050388;28;20063;-90
2022/06/10 04:51:32;;;;;;;10.50;7.40;;;;;;;21.99;57.03;100617.44;5066813;28;20064;-84
2022/06/10 04:53:57;;;;;;;9.43;7.03;;;;;;;22.43;57.70;100622.84;5048998;28;20028;-92
2022/06/10 04:56:23;;;;;;;11.60;8.05;;;;;;;22.75;55.88;100616.97;5045855;28;20065;-86
2022/06/10 04:58:48;;;;;;;16.00;9.68;;;;;;;22.68;56.49;100618.56;5025206;28;20133;-91
2022/06/10 05:01:14;;;;;;;13.25;7.80;;;;;;;22.48;56.34;100602.94;4991538;28;20052;-87
2022/06/10 05:03:40;;;;;;;14.27;8.05;;;;;;;22.68;56.64;100623.84;5003911;28;20431;-90
2022/06/10 05:06:06;;;;;;;14.30;7.72;;;;;;;22.55;56.86;100625.06;5019445;28;20066;-89
2022/06/10 05:08:31;;;;;;;15.27;8.77;;;;;;;22.61;56.78;100627.09;5024083;28;20525;-94
2022/06/10 05:10:57;;;;;;;11.20;7.80;;;;;;;22.55;56.87;100626.88;5018074;28;20029;-91
2022/06/10 05:13:22;;;;;;;11.70;7.28;;;;;;;22.42;57.91;100615.88;5024281;28;20208;-89
2022/06/10 05:15:48;;;;;;;10.82;7.07;;;;;;;22.77;56.83;100636.13;5041253;28;20057;-89
2022/06/10 05:18:15;;;;;;;9.82;7.63;;;;;;;22.69;55.81;100639.50;5024026;28;20124;-88
2022/06/10 05:20:41;;;;;;;9.30;7.45;;;;;;;22.83;56.06;100615.22;5004596;28;20616;-90
2022/06/10 05:23:08;;;;;;;14.57;7.47;;;;;;;22.97;55.85;100627.06;5025441;28;20498;-88
2022/06/10 05:25:33;;;;;;;11.07;8.85;;;;;;;23.11;55.84;100641.50;5025137;28;20447;-89
2022/06/10 05:27:59;;;;;;;11.70;7.50;;;;;;;23.07;54.63;100635.69;5016695;28;20552;-93
2022/06/10 05:30:25;;;;;;;14.25;7.47;;;;;;;22.88;56.23;100633.25;5015016;28;20419;-87
2022/06/10 05:32:51;;;;;;;12.98;7.38;;;;;;;22.65;55.88;100645.25;5011067;28;20125;-86
2022/06/10 05:35:17;;;;;;;10.57;7.38;;;;;;;22.43;57.05;100638.66;5011785;28;20030;-86
2022/06/10 05:37:43;;;;;;;10.23;6.57;;;;;;;22.64;57.27;100635.69;4995506;28;20049;-91
2022/06/10 05:40:10;;;;;;;14.00;6.95;;;;;;;22.74;56.76;100631.16;5008508;28;20050;-85
2022/06/10 05:42:36;;;;;;;12.20;7.20;;;;;;;23.01;55.88;100638.97;4993581;28;20061;-87
2022/06/10 05:45:01;;;;;;;11.63;7.32;;;;;;;22.96;56.29;100641.22;4976598;28;20054;-85
2022/06/10 05:47:33;;;;;;;10.95;7.25;;;;;;;22.99;56.16;100640.91;5006639;28;20121;-84
2022/06/10 05:49:59;;;;;;;9.87;7.50;;;;;;;22.93;55.91;100640.72;4979320;28;20029;-90
2022/06/10 05:52:27;;;;;;;11.65;7.80;;;;;;;22.80;56.76;100643.72;4977954;28;20030;-86
2022/06/10 05:54:55;;;;;;;12.25;7.72;;;;;;;22.84;57.25;100650.38;4981608;28;20503;-87
2022/06/10 05:57:20;;;;;;;10.82;8.30;;;;;;;22.94;56.63;100653.75;5011854;28;20068;-88
2022/06/10 05:59:52;;;;;;;12.82;7.95;;;;;;;23.03;56.71;100647.56;5010310;28;20026;-88
2022/06/10 06:02:19;;;;;;;13.15;8.43;;;;;;;23.22;56.47;100656.25;5011090;28;20404;-88
2022/06/10 06:07:28;;;;;;;11.52;7.47;;;;;;;23.16;55.25;100629.47;4995051;28;20042;-87
2022/06/10 06:09:54;;;;;;;10.90;7.40;;;;;;;23.15;55.86;100651.56;5007890;28;20030;-87
2022/06/10 06:12:20;;;;;;;10.23;7.53;;;;;;;23.12;56.19;100657.19;4985853;28;20022;-90
2022/06/10 06:14:45;;;;;;;11.45;8.00;;;;;;;23.24;55.28;100657.72;4992342;28;20079;-92
2022/06/10 06:17:11;;;;;;;9.57;7.72;;;;;;;23.35;56.15;100657.47;4994148;28;20467;-88
2022/06/10 06:19:37;;;;;;;9.73;8.55;;;;;;;23.33;56.01;100654.16;4984293;28;20026;-87
2022/06/10 06:22:03;;;;;;;10.85;7.88;;;;;;;23.43;55.27;100638.19;4978015;28;20031;-86
2022/06/10 06:24:28;;;;;;;10.82;7.63;;;;;;;23.48;55.51;100646.47;5002879;28;20455;-87
2022/06/10 06:26:54;;;;;;;15.13;8.25;;;;;;;23.54;55.77;100656.41;5010963;28;20030;-84
2022/06/10 06:29:20;;;;;;;11.68;7.88;;;;;;;23.48;54.64;100657.03;5011672;28;20033;-92
2022/06/10 06:31:45;;;;;;;14.02;8.02;;;;;;;23.31;55.61;100665.88;5006858;28;20496;-89
2022/06/10 06:34:11;;;;;;;10.02;7.50;;;;;;;23.18;56.36;100645.16;5008677;28;20053;-92
2022/06/10 06:36:44;;;;;;;11.95;9.52;;;;;;;23.49;55.45;100658.69;5010027;28;20038;-92
2022/06/10 06:39:11;;;;;;;9.70;8.40;;;;;;;23.49;55.06;100663.97;4993458;28;20515;-92
2022/06/10 06:41:36;;;;;;;10.77;9.23;;;;;;;23.48;55.32;100662.31;4993471;28;20030;-85
2022/06/10 06:44:05;;;;;;;8.90;7.57;;;;;;;23.37;54.26;100644.09;5009779;28;20112;-88
2022/06/10 06:46:31;;;;;;;10.02;7.85;;;;;;;23.34;54.59;100660.25;5009685;28;20037;-91
2022/06/10 06:48:57;;;;;;;9.10;7.40;;;;;;;23.25;56.05;100669.13;4978067;28;20041;-91
2022/06/10 06:51:22;;;;;;;14.10;7.93;;;;;;;23.21;57.38;100641.41;4997918;28;20029;-89
2022/06/10 06:53:48;;;;;;;15.25;8.18;;;;;;;23.81;54.71;100658.03;5012135;28;20029;-88
2022/06/10 06:56:14;;;;;;;11.82;8.85;;;;;;;23.90;54.15;100645.69;4972380;28;20425;-87
2022/06/10 06:58:39;;;;;;;12.55;9.23;;;;;;;23.70;53.62;100639.84;5007073;28;20117;-89
2022/06/10 07:01:05;;;;;;;16.02;14.20;;;;;;;24.04;54.77;100656.44;5008174;28;20030;-90
2022/06/10 07:03:30;;;;;;;11.15;7.53;;;;;;;23.93;52.82;100648.81;5009461;28;20045;-87
2022/06/10 07:05:56;;;;;;;27.27;18.75;;;;;;;24.16;54.33;100662.25;5003631;28;20038;-89
2022/06/10 07:08:25;;;;;;;20.20;13.32;;;;;;;24.03;54.04;100662.72;4984871;28;20061;-93
2022/06/10 07:10:50;;;;;;;11.60;7.60;;;;;;;23.87;54.25;100657.38;5005456;28;20052;-85
2022/06/10 07:13:16;;;;;;;12.02;8.00;;;;;;;23.83;55.11;100658.69;4977208;28;20053;-86
2022/06/10 07:15:43;;;;;;;13.13;8.93;;;;;;;24.11;54.94;100658.47;5009173;28;20054;-88
2022/06/10 07:18:08;;;;;;;8.48;6.70;;;;;;;24.10;53.47;100643.59;5010408;28;20509;-87
2022/06/10 07:20:35;;;;;;;11.85;7.53;;;;;;;23.86;53.68;100655.72;4989354;28;20026;-85
2022/06/10 07:23:01;;;;;;;12.70;7.45;;;;;;;23.93;54.73;100661.22;5005220;28;20034;-89
2022/06/10 07:25:27;;;;;;;13.07;9.00;;;;;;;24.02;54.67;100650.50;4988012;28;20036;-87
2022/06/10 07:27:53;;;;;;;10.35;6.68;;;;;;;23.89;54.16;100659.84;5007758;28;20018;-88
2022/06/10 07:30:18;;;;;;;9.77;6.55;;;;;;;24.07;54.41;100659.75;5009524;28;20037;-91
2022/06/10 07:32:44;;;;;;;10.10;6.65;;;;;;;24.31;53.59;100658.03;5007452;28;20515;-86
2022/06/10 07:35:10;;;;;;;10.50;6.20;;;;;;;24.38;53.76;100649.41;4991008;28;20022;-86
2022/06/10 07:37:35;;;;;;;10.05;6.72;;;;;;;24.44;53.81;100648.78;4998176;28;20022;-84
2022/06/10 07:40:01;;;;;;;14.55;6.10;;;;;;;24.41;53.05;100649.94;5010157;28;20878;-88
2022/06/10 07:42:27;;;;;;;9.60;5.85;;;;;;;24.15;53.54;100652.66;5006621;28;20092;-86
2022/06/10 07:44:54;;;;;;;6.93;5.80;;;;;;;24.13;53.88;100649.38;5005770;28;20423;-87
2022/06/10 07:47:20;;;;;;;7.28;5.50;;;;;;;24.12;53.47;100662.75;5006784;28;20052;-91
2022/06/10 07:49:45;;;;;;;9.63;6.45;;;;;;;24.16;53.15;100662.25;4974669;28;20068;-86
2022/06/10 07:52:12;;;;;;;8.23;5.65;;;;;;;24.08;52.83;100664.88;4991260;28;20022;-86
2022/06/10 07:54:37;;;;;;;7.45;6.20;;;;;;;23.96;53.84;100660.88;5004629;28;20084;-87
2022/06/10 07:57:04;;;;;;;7.93;5.60;;;;;;;24.00;52.94;100651.66;4987782;28;20046;-85
2022/06/10 07:59:30;;;;;;;8.63;5.82;;;;;;;24.08;52.77;100659.56;4990919;28;20109;-86
2022/06/10 08:01:55;;;;;;;8.00;5.60;;;;;;;24.08;52.87;100656.94;5009208;28;20025;-88
2022/06/10 08:04:22;;;;;;;9.70;6.45;;;;;;;24.09;52.99;100655.97;4975592;28;20048;-82
2022/06/10 08:06:47;;;;;;;12.38;5.55;;;;;;;24.20;53.15;100663.59;5006433;28;20049;-85
2022/06/10 08:09:14;;;;;;;7.95;5.88;;;;;;;24.27;52.23;100654.00;5004395;28;20447;-87
2022/06/10 08:11:40;;;;;;;11.25;5.80;;;;;;;24.35;51.95;100660.34;4997988;28;20038;-85
2022/06/10 08:14:05;;;;;;;9.52;6.13;;;;;;;24.26;52.30;100652.34;4981769;28;20132;-87
2022/06/10 08:16:31;;;;;;;11.70;5.85;;;;;;;24.37;52.91;100666.28;5006733;28;20516;-87
2022/06/10 08:18:57;;;;;;;11.60;5.43;;;;;;;24.25;52.91;100669.22;4992093;28;20022;-87
2022/06/10 08:24:06;;;;;;;10.25;6.45;;;;;;;24.06;54.99;100666.84;5002130;28;20584;-87
2022/06/10 08:26:33;;;;;;;12.05;6.82;;;;;;;23.69;57.21;100665.41;5008680;28;20030;-84
2022/06/10 08:29:00;;;;;;;9.80;6.13;;;;;;;23.71;57.12;100658.16;5008948;28;20038;-84
2022/06/10 08:31:26;;;;;;;11.50;6.70;;;;;;;23.75;57.88;100658.66;5009679;28;20496;-85
2022/06/10 08:33:52;;;;;;;13.38;7.38;;;;;;;23.65;58.02;100664.06;5008480;28;20109;-86
2022/06/10 08:36:18;;;;;;;12.25;6.90;;;;;;;23.67;58.60;100682.41;4991693;28;20037;-86
2022/06/10 08:38:43;;;;;;;9.40;6.35;;;;;;;23.30;58.69;100653.63;4988767;28;20128;-90
2022/06/10 08:41:21;;;;;;;14.30;6.72;;;;;;;23.51;59.23;100693.69;5007508;28;20030;-91
2022/06/10 08:44:01;;;;;;;12.95;7.30;;;;;;;23.38;61.32;100709.13;5009118;28;20026;-87
2022/06/10 08:46:48;;;;;;;40.78;30.40;;;;;;;22.82;62.18;100727.00;5004316;28;20030;-87
2022/06/10 08:49:37;;;;;;;47.88;28.80;;;;;;;22.60;63.77;100727.44;5008419;28;20030;-87
2022/06/10 08:52:35;;;;;;;24.38;12.18;;;;;;;22.86;65.02;100731.00;5006913;28;20112;-89
2022/06/10 08:55:30;;;;;;;49.67;10.30;;;;;;;22.38;67.64;100720.78;4984812;28;20034;-84
2022/06/10 08:57:56;;;;;;;24.90;10.05;;;;;;;22.51;67.61;100725.69;5007743;28;20029;-84
2022/06/10 09:00:27;;;;;;;27.17;9.88;;;;;;;21.93;71.01;100715.50;5005017;28;20499;-84
2022/06/10 09:02:56;;;;;;;24.17;9.20;;;;;;;22.09;69.35;100680.63;5008797;28;20026;-88
2022/06/10 09:05:28;;;;;;;21.50;8.32;;;;;;;22.42;69.03;100710.78;5008982;28;20038;-86
2022/06/10 09:08:03;;;;;;;;;;;;;;;23.00;66.96;100721.72;5012019;28;20502;-86
2022/06/10 09:10:43;;;;;;;150.98;86.22;;;;;;;22.96;66.95;100709.81;5010177;28;19917;-84
2022/06/10 09:13:24;;;;;;;19.98;11.55;;;;;;;22.61;67.36;100708.00;5000076;28;20058;-86
2022/06/10 09:15:55;;;;;;;24.48;12.93;;;;;;;22.69;68.40;100709.88;5009735;28;20125;-83
2022/06/10 09:18:47;;;;;;;14.32;9.30;;;;;;;22.81;67.39;100717.44;5010853;28;20036;-86
2022/06/10 09:21:19;;;;;;;13.38;9.50;;;;;;;22.99;66.55;100714.78;5008942;28;20033;-86
2022/06/10 09:23:45;;;;;;;22.60;16.95;;;;;;;23.47;65.23;100703.72;5009006;28;20105;-87
2022/06/10 09:26:31;;;;;;;17.65;9.07;;;;;;;23.56;65.17;100695.84;5000479;28;20022;-86
2022/06/10 09:28:57;;;;;;;21.00;9.88;;;;;;;23.64;64.38;100691.47;4978892;28;20030;-87
2022/06/10 09:31:45;;;;;;;15.80;9.23;;;;;;;23.77;64.50;100695.47;4993867;28;20030;-89
2022/06/10 09:34:24;;;;;;;21.90;11.82;;;;;;;23.85;64.58;100700.81;4993226;28;20037;-85
2022/06/10 09:37:04;;;;;;;20.08;11.77;;;;;;;23.79;65.61;100709.34;5010194;28;20029;-86
2022/06/10 09:42:35;;;;;;;14.73;10.73;;;;;;;23.46;66.61;100691.50;5011720;28;20123;-89
2022/06/10 09:45:22;;;;;;;13.55;9.80;;;;;;;23.62;66.80;100711.94;5010852;28;20029;-86
2022/06/10 09:48:09;;;;;;;14.02;8.88;;;;;;;23.49;67.87;100708.84;5008955;28;20040;-91
2022/06/10 09:50:45;;;;;;;13.25;8.90;;;;;;;23.43;66.98;100706.84;5009997;28;20068;-85
2022/06/10 09:53:32;;;;;;;15.75;8.98;;;;;;;23.49;66.74;100711.47;4989757;28;20033;-86
2022/06/10 09:56:07;;;;;;;11.20;8.75;;;;;;;23.55;66.83;100702.94;4968313;28;20149;-86
2022/06/10 09:58:39;;;;;;;13.52;8.60;;;;;;;23.83;66.64;100708.06;5012015;28;20022;-87
2022/06/10 10:01:15;;;;;;;29.30;11.25;;;;;;;23.87;66.95;100715.50;5010921;28;20191;-87
2022/06/10 10:04:02;;;;;;;12.13;9.23;;;;;;;23.91;66.29;100705.47;5006914;28;20483;-88
2022/06/10 10:06:42;;;;;;;12.50;8.57;;;;;;;23.63;65.04;100689.81;5008566;28;20026;-86
2022/06/10 10:09:26;;;;;;;9.88;7.35;;;;;;;23.66;62.77;100707.97;5010559;28;20037;-84
2022/06/10 10:12:05;;;;;;;10.15;6.65;;;;;;;23.43;60.78;100696.28;5011260;28;20056;-84
2022/06/10 10:14:53;;;;;;;20.52;15.02;;;;;;;23.44;64.13;100700.59;4998195;28;20041;-84
2022/06/10 10:17:37;;;;;;;8.95;7.85;;;;;;;23.23;62.19;100681.66;5010305;28;20100;-94
2022/06/10 10:20:23;;;;;;;9.73;6.85;;;;;;;23.26;63.72;100711.19;5010573;28;20040;-85
2022/06/10 10:23:01;;;;;;;11.02;8.95;;;;;;;23.27;65.41;100717.28;5010187;28;20136;-88
2022/06/10 10:25:27;;;;;;;12.52;8.02;;;;;;;23.28;64.78;100714.50;5012834;28;20030;-94
2022/06/10 10:27:53;;;;;;;11.95;7.15;;;;;;;23.21;65.48;100710.00;5014009;28;20140;-86
2022/06/10 10:30:20;;;;;;;12.27;8.57;;;;;;;23.20;66.03;100727.63;5010329;28;20040;-87
2022/06/10 10:33:20;;;;;;;85.53;53.22;;;;;;;23.10;66.06;100700.50;5010033;28;20029;-86
2022/06/10 10:35:50;;;;;;;13.50;9.43;;;;;;;23.07;66.70;100719.28;4995905;28;20038;-90
2022/06/10 10:38:41;;;;;;;13.77;8.40;;;;;;;23.07;66.81;100712.22;5011004;28;20115;-89
2022/06/10 10:41:13;;;;;;;11.73;8.13;;;;;;;23.38;65.89;100709.94;4996947;28;20022;-90
2022/06/10 10:43:38;;;;;;;11.65;8.38;;;;;;;23.29;66.06;100673.09;5013480;28;20095;-88
2022/06/10 10:46:06;;;;;;;15.88;8.60;;;;;;;23.42;65.33;100668.22;5011960;28;20491;-88
2022/06/10 10:48:35;;;;;;;16.15;8.95;;;;;;;23.51;66.18;100698.97;4998940;28;20061;-94
2022/06/10 10:51:05;;;;;;;16.35;11.10;;;;;;;23.73;66.15;100693.16;5023013;28;20037;-94
2022/06/10 10:53:42;;;;;;;20.10;15.63;;;;;;;23.86;66.66;100698.00;5009862;28;20494;-88
2022/06/10 10:56:09;;;;;;;21.77;13.35;;;;;;;24.08;66.00;100701.88;5009350;28;20080;-86
2022/06/10 10:58:53;;;;;;;11.57;8.52;;;;;;;23.78;64.58;100700.59;4993623;28;20033;-86
2022/06/10 11:01:43;;;;;;;12.40;8.60;;;;;;;23.72;63.23;100712.66;4977660;28;20034;-85
2022/06/10 11:04:10;;;;;;;12.52;9.73;;;;;;;23.53;65.96;100691.72;5011136;28;20060;-85
2022/06/10 11:06:37;;;;;;;16.52;8.88;;;;;;;23.50;65.40;100702.59;4987514;28;20038;-84
2022/06/10 11:09:14;;;;;;;11.50;8.48;;;;;;;23.56;65.60;100707.25;4958861;28;20513;-83
2022/06/10 11:11:40;;;;;;;11.40;8.25;;;;;;;23.72;66.12;100704.72;4974552;28;20046;-83
2022/06/10 11:14:31;;;;;;;10.45;8.35;;;;;;;23.91;66.26;100689.59;5015422;28;20396;-88
2022/06/10 11:17:02;;;;;;;10.38;8.25;;;;;;;24.00;65.42;100696.59;4995048;28;20446;-84
2022/06/10 11:19:34;;;;;;;10.85;8.88;;;;;;;23.96;66.60;100684.66;5009061;28;20517;-93
2022/06/10 11:22:02;;;;;;;13.27;8.35;;;;;;;23.98;66.00;100690.59;5011417;28;20096;-87
2022/06/10 11:24:31;;;;;;;14.82;10.73;;;;;;;23.85;65.92;100690.22;5010965;28;20026;-89
2022/06/10 11:26:59;;;;;;;14.20;10.85;;;;;;;23.79;66.91;100686.41;5010609;28;20037;-86
2022/06/10 11:29:26;;;;;;;14.00;10.13;;;;;;;23.90;66.20;100695.88;4976946;28;20022;-88
2022/06/10 11:32:00;;;;;;;12.10;8.05;;;;;;;23.97;65.14;100692.41;4993683;28;20018;-85
2022/06/10 11:34:38;;;;;;;12.77;8.68;;;;;;;24.08;65.45;100688.66;5010453;28;20117;-85
2022/06/10 11:37:19;;;;;;;10.63;7.97;;;;;;;24.09;65.63;100686.84;5009690;28;20030;-86
2022/06/10 11:39:47;;;;;;;10.07;7.57;;;;;;;24.04;63.79;100674.13;5010554;28;20510;-85
2022/06/10 11:42:18;;;;;;;11.38;7.25;;;;;;;23.98;61.64;100669.47;4993188;28;20025;-87
2022/06/10 11:45:05;;;;;;;9.13;6.63;;;;;;;24.11;61.46;100669.84;5009000;28;20022;-95
2022/06/10 11:47:44;;;;;;;11.30;6.30;;;;;;;24.13;59.44;100659.13;5013117;28;20033;-86
2022/06/10 11:50:29;;;;;;;10.13;6.13;;;;;;;24.29;59.67;100664.44;5009363;28;20511;-87
2022/06/10 11:53:07;;;;;;;10.40;7.75;;;;;;;24.41;61.05;100654.41;5009914;28;20054;-89
2022/06/10 11:55:35;;;;;;;9.77;7.05;;;;;;;24.74;59.71;100661.34;5010841;28;20026;-87
2022/06/10 12:00:53;;;;;;;9.80;6.28;;;;;;;25.33;56.36;100666.41;5011530;28;20041;-90
2022/06/10 12:03:21;;;;;;;6.93;5.80;;;;;;;25.13;54.11;100668.59;5009628;28;20034;-84
2022/06/10 12:06:00;;;;;;;6.90;5.95;;;;;;;24.73;54.28;100630.59;5008829;28;20033;-88
2022/06/10 12:08:48;;;;;;;9.57;6.38;;;;;;;24.88;56.73;100650.09;4994039;28;20076;-84
2022/06/10 12:11:33;;;;;;;11.55;6.25;;;;;;;25.09;54.63;100644.31;4987363;28;20117;-86
2022/06/10 12:14:19;;;;;;;9.68;6.15;;;;;;;25.28;54.62;100656.34;4967477;28;20756;-85
2022/06/10 12:16:54;;;;;;;15.23;6.00;;;;;;;25.32;53.61;100654.16;4988893;28;20112;-93
2022/06/10 12:19:31;;;;;;;6.70;6.00;;;;;;;25.34;53.38;100658.28;4973122;28;20381;-84
2022/06/10 12:21:57;;;;;;;12.88;7.13;;;;;;;25.28;53.79;100637.00;4988454;28;20397;-85
2022/06/10 12:24:23;;;;;;;8.75;7.13;;;;;;;25.21;52.79;100641.31;4989756;28;20034;-88
2022/06/10 12:26:56;;;;;;;10.43;5.75;;;;;;;25.06;52.40;100634.03;5006887;28;20068;-95
2022/06/10 12:29:47;;;;;;;10.20;5.75;;;;;;;25.11;53.37;100644.97;4992994;28;20065;-87
2022/06/10 12:32:42;;;;;;;9.55;6.05;;;;;;;25.04;54.41;100637.84;5034490;28;20419;-92
2022/06/10 12:35:43;;;;;;;9.65;5.70;;;;;;;25.07;53.20;100629.56;5022487;28;20571;-94
2022/06/10 12:38:20;;;;;;;7.47;5.82;;;;;;;25.07;53.32;100621.63;4995627;28;20057;-85
2022/06/10 12:40:57;;;;;;;7.32;6.43;;;;;;;25.14;54.60;100626.09;4995959;28;20026;-87
2022/06/10 12:43:36;;;;;;;10.07;5.82;;;;;;;25.08;52.70;100594.19;5014079;28;20029;-86
2022/06/10 12:46:26;;;;;;;11.25;6.03;;;;;;;25.27;52.92;100625.56;5010755;28;20524;-88
2022/06/10 12:48:52;;;;;;;7.65;5.88;;;;;;;25.34;52.43;100621.22;5012427;28;20041;-88
2022/06/10 12:51:50;;;;;;;9.63;6.22;;;;;;;25.33;53.41;100624.88;4996477;28;20117;-89
2022/06/10 12:54:26;;;;;;;9.60;6.97;;;;;;;25.42;52.79;100630.97;5012369;28;20072;-85
2022/06/10 12:57:28;;;;;;;11.52;6.38;;;;;;;25.55;52.51;100633.06;5012494;28;20029;-85
2022/06/10 13:00:22;;;;;;;11.82;6.53;;;;;;;25.75;51.92;100623.72;5015184;28;20054;-91
2022/06/10 13:02:51;;;;;;;6.70;5.82;;;;;;;25.96;52.30;100616.00;5008478;28;20108;-89
2022/06/10 13:05:27;;;;;;;9.93;6.00;;;;;;;26.03;51.54;100627.53;5013084;28;20532;-83
2022/06/10 13:07:54;;;;;;;10.52;6.07;;;;;;;25.94;51.40;100623.28;5012825;28;20065;-88
2022/06/10 13:10:28;;;;;;;6.57;5.50;;;;;;;25.63;51.34;100630.38;4979955;28;20518;-83
2022/06/10 13:13:15;;;;;;;9.90;5.93;;;;;;;25.61;52.20;100627.91;5013606;28;20395;-83
2022/06/10 13:15:42;;;;;;;8.48;6.40;;;;;;;25.57;52.99;100620.50;4989176;28;20060;-85
2022/06/10 13:18:17;;;;;;;7.88;6.03;;;;;;;25.52;52.55;100622.81;5012316;28;20040;-84
2022/06/10 13:20:42;;;;;;;7.93;6.15;;;;;;;25.42;52.77;100613.25;5013542;28;20048;-84
2022/06/10 13:23:10;;;;;;;8.95;6.70;;;;;;;25.33;54.43;100619.56;5012398;28;20479;-83
2022/06/10 13:25:36;;;;;;;9.25;7.45;;;;;;;25.05;55.69;100597.16;5012234;28;20022;-84
2022/06/10 13:28:01;;;;;;;9.43;7.93;;;;;;;25.01;56.81;100582.59;4992597;28;20073;-84
2022/06/10 13:30:31;;;;;;;9.90;8.68;;;;;;;24.94;56.96;100600.13;4975751;28;20069;-87
2022/06/10 13:33:07;;;;;;;10.85;8.40;;;;;;;24.83;56.28;100607.44;4975250;28;20073;-86
2022/06/10 13:35:36;;;;;;;14.10;8.80;;;;;;;24.81;57.80;100608.59;5012046;28;20030;-87
2022/06/10 13:38:27;;;;;;;10.68;9.15;;;;;;;24.84;59.07;100605.59;5010401;28;20021;-89
2022/06/10 13:41:48;;;;;;;11.57;8.63;;;;;;;24.85;59.02;100621.31;5007114;28;20038;-89
2022/06/10 13:43:41;;;;;;;9.32;8.32;;;;;;;24.88;59.13;100617.53;5009408;28;20116;-86
2022/06/10 13:46:20;;;;;;;9.57;7.72;;;;;;;24.62;57.70;100615.06;4977044;28;20060;-87
2022/06/10 13:48:45;;;;;;;16.30;9.63;;;;;;;24.47;61.44;100640.50;4987900;28;20034;-88
2022/06/10 13:51:28;;;;;;;22.73;12.25;;;;;;;23.63;67.07;100639.66;4992491;28;20396;-89
2022/06/10 13:54:05;;;;;;;27.17;13.23;;;;;;;22.93;71.55;100628.34;4995391;28;20025;-86
2022/06/10 13:56:36;;;;;;;29.10;15.43;;;;;;;22.67;73.98;100616.91;5011327;28;20060;-85
2022/06/10 13:59:02;;;;;;;19.45;14.38;;;;;;;22.64;74.01;100622.50;4993995;28;20022;-87
2022/06/10 14:01:30;;;;;;;20.92;14.27;;;;;;;22.30;75.66;100626.66;4990935;28;20045;-86
2022/06/10 14:04:02;;;;;;;26.83;16.70;;;;;;;22.32;75.81;100626.53;4993838;28;20026;-89
2022/06/10 14:06:32;;;;;;;24.15;16.00;;;;;;;22.28;76.80;100628.63;5011264;28;20037;-86
2022/06/10 14:09:19;;;;;;;22.60;15.63;;;;;;;22.24;76.14;100613.28;4995385;28;20057;-84
2022/06/10 14:12:00;;;;;;;22.23;14.82;;;;;;;22.53;75.23;100624.41;5002275;28;20467;-84
2022/06/10 14:14:26;;;;;;;18.65;15.88;;;;;;;22.62;75.26;100612.13;5009166;28;20475;-83
2022/06/10 14:17:23;;;;;;;23.20;15.80;;;;;;;22.55;75.42;100611.88;5009875;28;20116;-83
2022/06/10 14:19:50;;;;;;;21.83;16.55;;;;;;;22.50;76.74;100619.41;5012527;28;20037;-84
2022/06/10 14:22:26;;;;;;;20.80;16.40;;;;;;;22.44;76.87;100604.22;4995033;28;20044;-83
2022/06/10 14:25:13;;;;;;;18.50;13.93;;;;;;;22.69;75.95;100615.78;4995229;28;20099;-84
2022/06/10 14:28:00;;;;;;;19.40;14.60;;;;;;;22.72;76.11;100617.31;5010293;28;20527;-85
2022/06/10 14:30:42;;;;;;;18.25;13.57;;;;;;;23.13;73.35;100621.06;4996649;28;20558;-85
2022/06/10 14:33:21;;;;;;;16.02;12.38;;;;;;;23.37;71.83;100613.25;4978560;28;20041;-85
2022/06/10 14:35:49;;;;;;;19.45;15.13;;;;;;;23.03;73.58;100581.59;4994657;28;20029;-85
2022/06/10 14:38:16;;;;;;;19.02;15.02;;;;;;;23.19;73.50;100620.41;4978679;28;20505;-85
2022/06/10 14:40:57;;;;;;;18.95;16.02;;;;;;;22.92;74.09;100602.97;5011799;28;20101;-84
2022/06/10 14:43:23;;;;;;;21.80;15.57;;;;;;;22.94;74.40;100611.53;5012150;28;20026;-84
2022/06/10 14:46:02;;;;;;;21.23;15.88;;;;;;;22.85;74.44;100612.47;4995176;28;20478;-84
2022/06/10 14:48:41;;;;;;;20.60;15.60;;;;;;;22.93;74.51;100624.91;4994783;28;20081;-84
2022/06/10 14:51:36;;;;;;;20.58;16.08;;;;;;;22.92;74.90;100645.16;4995122;28;20030;-84
2022/06/10 14:54:20;;;;;;;22.17;18.23;;;;;;;22.83;75.44;100646.06;5011094;28;20029;-85
2022/06/10 14:56:48;;;;;;;23.40;17.65;;;;;;;22.81;75.65;100637.44;4994993;28;20060;-85
2022/06/10 14:59:19;;;;;;;22.75;17.55;;;;;;;22.83;75.27;100638.97;4978640;28;20108;-84
2022/06/10 15:01:44;;;;;;;24.57;17.50;;;;;;;22.75;76.08;100640.72;5011505;28;20050;-84
2022/06/10 15:04:11;;;;;;;23.13;18.17;;;;;;;22.61;76.25;100640.28;5010943;28;20080;-83
2022/06/10 15:06:39;;;;;;;22.20;16.90;;;;;;;22.56;75.57;100639.91;5011444;28;20406;-90
2022/06/10 15:09:08;;;;;;;22.65;17.52;;;;;;;22.44;75.46;100625.31;4995167;28;20033;-89
2022/06/10 15:11:34;;;;;;;23.30;18.45;;;;;;;22.39;75.78;100621.47;5010511;28;20026;-90
2022/06/10 15:13:59;;;;;;;23.75;18.42;;;;;;;22.29;76.28;100618.91;4994356;28;20514;-90
2022/06/10 15:16:25;;;;;;;27.55;19.23;;;;;;;22.39;76.87;100632.84;4978107;28;20045;-90
2022/06/10 15:18:51;;;;;;;22.95;19.05;;;;;;;22.35;76.06;100639.41;5010789;28;20029;-90
2022/06/10 15:21:20;;;;;;;27.55;18.83;;;;;;;22.42;76.68;100635.19;4994436;28;20072;-90
2022/06/10 15:23:46;;;;;;;26.98;21.48;;;;;;;22.39;77.17;100632.00;4978394;28;20513;-89
2022/06/10 15:26:12;;;;;;;26.88;20.15;;;;;;;22.46;77.49;100633.88;4993817;28;20487;-89
2022/06/10 15:28:38;;;;;;;25.40;18.60;;;;;;;22.47;76.93;100635.53;5010936;28;20088;-90
2022/06/10 15:31:03;;;;;;;25.27;19.48;;;;;;;22.43;77.07;100626.28;5010596;28;20124;-89
2022/06/10 15:33:30;;;;;;;23.50;18.38;;;;;;;22.26;77.43;100624.47;5010644;28;20025;-90
2022/06/10 15:41:29;;;;;;;27.58;19.02;;;;;;;22.45;77.46;100653.31;4996405;28;20419;-90
2022/06/10 15:43:55;;;;;;;27.50;20.20;;;;;;;22.50;77.74;100656.31;4993928;28;20021;-91
2022/06/10 15:46:21;;;;;;;25.88;19.67;;;;;;;22.52;77.98;100653.56;5010557;28;20084;-90
2022/06/10 15:48:47;;;;;;;26.13;21.48;;;;;;;22.52;78.22;100633.28;4993740;28;20116;-91
2022/06/10 15:51:26;;;;;;;30.00;22.15;;;;;;;22.52;78.57;100635.94;5010524;28;20122;-91
2022/06/10 15:53:54;;;;;;;31.20;22.83;;;;;;;22.52;79.11;100643.84;4978045;28;20029;-90
2022/06/10 15:59:05;;;;;;;29.27;22.23;;;;;;;22.53;77.77;100648.13;5010496;28;20036;-90
2022/06/10 16:01:30;;;;;;;28.38;21.40;;;;;;;22.41;77.52;100628.22;5010265;28;20034;-91
2022/06/10 16:03:57;;;;;;;27.73;21.00;;;;;;;22.52;77.85;100656.19;4993797;28;20096;-91
2022/06/10 16:06:23;;;;;;;29.70;22.27;;;;;;;22.50;77.46;100650.22;4993897;28;20047;-90
2022/06/10 16:08:48;;;;;;;28.73;22.85;;;;;;;22.52;77.88;100651.75;4993669;28;20024;-90
2022/06/10 16:11:17;;;;;;;28.67;22.35;;;;;;;22.60;77.86;100641.25;4977178;28;20030;-90
2022/06/10 16:13:45;;;;;;;32.13;23.98;;;;;;;22.59;77.97;100644.88;5010174;28;20026;-90